sensor_id;sensor_type;location;lat;lon;timestamp;temperature;humidity
56162;DHT22;42045;52.986;6.014;2023-01-30T00:01:30;6.00;99.90
56162;DHT22;42045;52.986;6.014;2023-01-30T00:03:56;6.00;99.90
56162;DHT22;42045;52.986;6.014;2023-01-30T00:06:22;6.00;99.90
56162;DHT22;42045;52.986;6.014;2023-01-30T00:08:48;6.10;99.90
56162;DHT22;42045;52.986;6.014;2023-01-30T00:11:15;6.00;99.90
56162;DHT22;42045;52.986;6.014;2023-01-30T00:13:42;6.10;99.90
56162;DHT22;42045;52.986;6.014;2023-01-30T00:16:08;6.10;99.90
56162;DHT22;42045;52.986;6.014;2023-01-30T00:18:37;6.00;99.90
56162;DHT22;42045;52.986;6.014;2023-01-30T00:21:05;6.10;99.90
56162;DHT22;42045;52.986;6.014;2023-01-30T00:23:32;6.20;99.90
56162;DHT22;42045;52.986;6.014;2023-01-30T00:25:59;6.20;99.90
56162;DHT22;42045;52.986;6.014;2023-01-30T00:28:24;6.20;99.90
56162;DHT22;42045;52.986;6.014;2023-01-30T00:30:52;6.10;99.90
56162;DHT22;42045;52.986;6.014;2023-01-30T00:33:19;6.20;99.90
56162;DHT22;42045;52.986;6.014;2023-01-30T00:35:45;6.10;99.90
56162;DHT22;42045;52.986;6.014;2023-01-30T00:38:11;6.10;99.90
56162;DHT22;42045;52.986;6.014;2023-01-30T00:40:37;6.30;99.90
56162;DHT22;42045;52.986;6.014;2023-01-30T00:43:03;6.30;99.90
56162;DHT22;42045;52.986;6.014;2023-01-30T00:45:47;6.20;99.90
56162;DHT22;42045;52.986;6.014;2023-01-30T00:48:33;6.30;99.90
56162;DHT22;42045;52.986;6.014;2023-01-30T00:50:59;6.20;99.90
56162;DHT22;42045;52.986;6.014;2023-01-30T00:53:25;6.30;99.90
56162;DHT22;42045;52.986;6.014;2023-01-30T00:55:51;6.20;99.90
56162;DHT22;42045;52.986;6.014;2023-01-30T00:58:18;6.20;99.90
56162;DHT22;42045;52.986;6.014;2023-01-30T01:00:43;6.20;99.90
56162;DHT22;42045;52.986;6.014;2023-01-30T01:03:09;6.20;99.90
56162;DHT22;42045;52.986;6.014;2023-01-30T01:05:35;6.30;99.90
56162;DHT22;42045;52.986;6.014;2023-01-30T01:08:02;6.20;99.90
56162;DHT22;42045;52.986;6.014;2023-01-30T01:10:28;6.30;99.90
56162;DHT22;42045;52.986;6.014;2023-01-30T01:12:54;6.40;99.90
56162;DHT22;42045;52.986;6.014;2023-01-30T01:15:21;6.20;99.90
56162;DHT22;42045;52.986;6.014;2023-01-30T01:17:47;6.30;99.90
56162;DHT22;42045;52.986;6.014;2023-01-30T01:20:14;6.20;99.90
56162;DHT22;42045;52.986;6.014;2023-01-30T01:22:40;6.40;99.90
56162;DHT22;42045;52.986;6.014;2023-01-30T01:25:06;6.40;99.90
56162;DHT22;42045;52.986;6.014;2023-01-30T01:27:31;6.20;99.90
56162;DHT22;42045;52.986;6.014;2023-01-30T01:29:57;6.20;99.90
56162;DHT22;42045;52.986;6.014;2023-01-30T01:32:23;6.20;99.90
56162;DHT22;42045;52.986;6.014;2023-01-30T01:34:48;6.40;99.90
56162;DHT22;42045;52.986;6.014;2023-01-30T01:37:15;6.20;99.90
56162;DHT22;42045;52.986;6.014;2023-01-30T01:39:40;6.20;99.90
56162;DHT22;42045;52.986;6.014;2023-01-30T01:42:27;6.20;99.90
56162;DHT22;42045;52.986;6.014;2023-01-30T01:47:34;6.40;99.90
56162;DHT22;42045;52.986;6.014;2023-01-30T01:50:01;6.40;99.90
56162;DHT22;42045;52.986;6.014;2023-01-30T01:52:28;6.20;99.90
56162;DHT22;42045;52.986;6.014;2023-01-30T01:55:00;6.40;99.90
56162;DHT22;42045;52.986;6.014;2023-01-30T01:57:45;6.30;99.90
56162;DHT22;42045;52.986;6.014;2023-01-30T02:00:15;6.40;99.90
56162;DHT22;42045;52.986;6.014;2023-01-30T02:03:04;6.30;99.90
56162;DHT22;42045;52.986;6.014;2023-01-30T02:05:31;6.50;99.90
56162;DHT22;42045;52.986;6.014;2023-01-30T02:08:04;6.50;99.90
56162;DHT22;42045;52.986;6.014;2023-01-30T02:10:57;6.50;99.90
56162;DHT22;42045;52.986;6.014;2023-01-30T02:13:25;6.30;99.90
56162;DHT22;42045;52.986;6.014;2023-01-30T02:15:52;6.40;99.90
56162;DHT22;42045;52.986;6.014;2023-01-30T02:18:19;6.30;99.90
56162;DHT22;42045;52.986;6.014;2023-01-30T02:29:37;6.40;99.90
56162;DHT22;42045;52.986;6.014;2023-01-30T02:34:58;6.30;99.90
56162;DHT22;42045;52.986;6.014;2023-01-30T02:46:16;6.30;99.90
56162;DHT22;42045;52.986;6.014;2023-01-30T02:48:45;6.50;99.90
56162;DHT22;42045;52.986;6.014;2023-01-30T02:53:42;6.60;99.90
56162;DHT22;42045;52.986;6.014;2023-01-30T02:56:08;6.60;99.90
56162;DHT22;42045;52.986;6.014;2023-01-30T02:58:57;6.60;99.90
56162;DHT22;42045;52.986;6.014;2023-01-30T03:07:14;6.40;99.90
56162;DHT22;42045;52.986;6.014;2023-01-30T03:12:54;6.60;99.90
56162;DHT22;42045;52.986;6.014;2023-01-30T03:15:34;6.60;99.90
56162;DHT22;42045;52.986;6.014;2023-01-30T03:18:01;6.60;99.90
56162;DHT22;42045;52.986;6.014;2023-01-30T03:20:27;6.40;99.90
56162;DHT22;42045;52.986;6.014;2023-01-30T03:22:53;6.60;99.90
56162;DHT22;42045;52.986;6.014;2023-01-30T03:25:22;6.60;99.90
56162;DHT22;42045;52.986;6.014;2023-01-30T03:27:49;6.60;99.90
56162;DHT22;42045;52.986;6.014;2023-01-30T03:30:16;6.30;99.90
56162;DHT22;42045;52.986;6.014;2023-01-30T03:32:42;6.30;99.90
56162;DHT22;42045;52.986;6.014;2023-01-30T03:35:08;6.30;99.90
56162;DHT22;42045;52.986;6.014;2023-01-30T03:37:34;6.30;99.90
56162;DHT22;42045;52.986;6.014;2023-01-30T03:40:00;6.20;99.90
56162;DHT22;42045;52.986;6.014;2023-01-30T03:42:26;6.10;99.90
56162;DHT22;42045;52.986;6.014;2023-01-30T03:44:52;6.10;99.90
56162;DHT22;42045;52.986;6.014;2023-01-30T03:47:18;6.20;99.90
56162;DHT22;42045;52.986;6.014;2023-01-30T03:49:43;6.30;99.90
56162;DHT22;42045;52.986;6.014;2023-01-30T03:52:09;6.30;99.90
56162;DHT22;42045;52.986;6.014;2023-01-30T03:54:35;6.20;99.90
56162;DHT22;42045;52.986;6.014;2023-01-30T03:57:00;6.20;99.90
56162;DHT22;42045;52.986;6.014;2023-01-30T03:59:26;6.20;99.90
56162;DHT22;42045;52.986;6.014;2023-01-30T04:01:52;6.20;99.90
56162;DHT22;42045;52.986;6.014;2023-01-30T04:04:17;6.10;99.90
56162;DHT22;42045;52.986;6.014;2023-01-30T04:06:43;6.00;99.90
56162;DHT22;42045;52.986;6.014;2023-01-30T04:09:09;6.00;99.90
56162;DHT22;42045;52.986;6.014;2023-01-30T04:11:34;6.10;99.90
56162;DHT22;42045;52.986;6.014;2023-01-30T04:14:00;6.00;99.90
56162;DHT22;42045;52.986;6.014;2023-01-30T04:16:26;6.00;99.90
56162;DHT22;42045;52.986;6.014;2023-01-30T04:18:52;6.00;99.90
56162;DHT22;42045;52.986;6.014;2023-01-30T04:21:18;6.00;99.90
56162;DHT22;42045;52.986;6.014;2023-01-30T04:23:44;6.00;99.90
56162;DHT22;42045;52.986;6.014;2023-01-30T04:26:10;6.00;99.90
56162;DHT22;42045;52.986;6.014;2023-01-30T04:28:36;6.00;99.90
56162;DHT22;42045;52.986;6.014;2023-01-30T04:31:02;6.00;99.90
56162;DHT22;42045;52.986;6.014;2023-01-30T04:33:28;5.90;99.90
56162;DHT22;42045;52.986;6.014;2023-01-30T04:35:55;5.70;99.90
56162;DHT22;42045;52.986;6.014;2023-01-30T04:38:22;5.60;99.90
56162;DHT22;42045;52.986;6.014;2023-01-30T04:40:52;5.60;99.90
56162;DHT22;42045;52.986;6.014;2023-01-30T04:43:20;5.60;99.90
56162;DHT22;42045;52.986;6.014;2023-01-30T04:45:47;5.60;99.90
56162;DHT22;42045;52.986;6.014;2023-01-30T04:48:14;5.40;99.90
56162;DHT22;42045;52.986;6.014;2023-01-30T04:50:41;5.40;99.90
56162;DHT22;42045;52.986;6.014;2023-01-30T04:53:08;5.40;99.90
56162;DHT22;42045;52.986;6.014;2023-01-30T04:55:34;5.30;99.90
56162;DHT22;42045;52.986;6.014;2023-01-30T04:58:00;5.30;99.90
56162;DHT22;42045;52.986;6.014;2023-01-30T05:00:26;5.30;99.90
56162;DHT22;42045;52.986;6.014;2023-01-30T05:02:52;5.20;99.90
56162;DHT22;42045;52.986;6.014;2023-01-30T05:05:18;5.20;99.90
56162;DHT22;42045;52.986;6.014;2023-01-30T05:07:43;5.20;99.90
56162;DHT22;42045;52.986;6.014;2023-01-30T05:10:09;5.20;99.90
56162;DHT22;42045;52.986;6.014;2023-01-30T05:12:35;5.20;99.90
56162;DHT22;42045;52.986;6.014;2023-01-30T05:15:01;5.10;99.90
56162;DHT22;42045;52.986;6.014;2023-01-30T05:17:27;5.10;99.90
56162;DHT22;42045;52.986;6.014;2023-01-30T05:19:52;5.10;99.90
56162;DHT22;42045;52.986;6.014;2023-01-30T05:22:18;5.20;99.90
56162;DHT22;42045;52.986;6.014;2023-01-30T05:24:43;5.10;99.90
56162;DHT22;42045;52.986;6.014;2023-01-30T05:27:09;5.10;99.90
56162;DHT22;42045;52.986;6.014;2023-01-30T05:29:35;5.10;99.90
56162;DHT22;42045;52.986;6.014;2023-01-30T05:32:00;5.00;99.90
56162;DHT22;42045;52.986;6.014;2023-01-30T05:34:27;5.00;99.90
56162;DHT22;42045;52.986;6.014;2023-01-30T05:36:53;5.00;99.90
56162;DHT22;42045;52.986;6.014;2023-01-30T05:39:19;5.00;99.90
56162;DHT22;42045;52.986;6.014;2023-01-30T05:41:44;5.00;99.90
56162;DHT22;42045;52.986;6.014;2023-01-30T05:44:10;5.00;99.90
56162;DHT22;42045;52.986;6.014;2023-01-30T05:46:36;4.90;99.90
56162;DHT22;42045;52.986;6.014;2023-01-30T05:49:01;4.90;99.90
56162;DHT22;42045;52.986;6.014;2023-01-30T05:51:29;4.90;99.90
56162;DHT22;42045;52.986;6.014;2023-01-30T05:53:54;4.90;99.90
56162;DHT22;42045;52.986;6.014;2023-01-30T05:56:21;4.80;99.90
56162;DHT22;42045;52.986;6.014;2023-01-30T05:58:52;4.80;99.90
56162;DHT22;42045;52.986;6.014;2023-01-30T06:01:18;4.80;99.90
56162;DHT22;42045;52.986;6.014;2023-01-30T06:03:44;4.80;99.90
56162;DHT22;42045;52.986;6.014;2023-01-30T06:06:11;4.80;99.90
56162;DHT22;42045;52.986;6.014;2023-01-30T06:08:37;4.90;99.90
56162;DHT22;42045;52.986;6.014;2023-01-30T06:11:11;4.90;99.90
56162;DHT22;42045;52.986;6.014;2023-01-30T06:13:37;4.90;99.90
56162;DHT22;42045;52.986;6.014;2023-01-30T06:16:04;4.90;99.90
56162;DHT22;42045;52.986;6.014;2023-01-30T06:18:30;4.90;99.90
56162;DHT22;42045;52.986;6.014;2023-01-30T06:20:56;4.80;99.90
56162;DHT22;42045;52.986;6.014;2023-01-30T06:23:21;4.90;99.90
56162;DHT22;42045;52.986;6.014;2023-01-30T06:25:51;4.90;99.90
56162;DHT22;42045;52.986;6.014;2023-01-30T06:28:18;5.00;99.90
56162;DHT22;42045;52.986;6.014;2023-01-30T06:30:43;5.00;99.90
56162;DHT22;42045;52.986;6.014;2023-01-30T06:33:09;5.00;99.90
56162;DHT22;42045;52.986;6.014;2023-01-30T06:35:39;5.00;99.90
56162;DHT22;42045;52.986;6.014;2023-01-30T06:38:05;4.90;99.90
56162;DHT22;42045;52.986;6.014;2023-01-30T06:40:34;4.90;99.90
56162;DHT22;42045;52.986;6.014;2023-01-30T06:42:59;4.90;99.90
56162;DHT22;42045;52.986;6.014;2023-01-30T06:45:25;4.90;99.90
56162;DHT22;42045;52.986;6.014;2023-01-30T06:47:53;4.80;99.90
56162;DHT22;42045;52.986;6.014;2023-01-30T06:50:20;4.80;99.90
56162;DHT22;42045;52.986;6.014;2023-01-30T06:52:48;4.80;99.90
56162;DHT22;42045;52.986;6.014;2023-01-30T06:55:16;4.80;99.90
56162;DHT22;42045;52.986;6.014;2023-01-30T06:57:42;4.80;99.90
56162;DHT22;42045;52.986;6.014;2023-01-30T07:00:14;4.80;99.90
56162;DHT22;42045;52.986;6.014;2023-01-30T07:02:40;4.80;99.90
56162;DHT22;42045;52.986;6.014;2023-01-30T07:05:07;4.80;99.90
56162;DHT22;42045;52.986;6.014;2023-01-30T07:07:33;4.90;99.90
56162;DHT22;42045;52.986;6.014;2023-01-30T07:09:59;4.90;99.90
56162;DHT22;42045;52.986;6.014;2023-01-30T07:12:26;5.00;99.90
56162;DHT22;42045;52.986;6.014;2023-01-30T07:14:52;5.00;99.90
56162;DHT22;42045;52.986;6.014;2023-01-30T07:17:22;5.10;99.90
56162;DHT22;42045;52.986;6.014;2023-01-30T07:19:48;5.10;99.90
56162;DHT22;42045;52.986;6.014;2023-01-30T07:22:14;5.20;99.90
56162;DHT22;42045;52.986;6.014;2023-01-30T07:24:40;5.30;99.90
56162;DHT22;42045;52.986;6.014;2023-01-30T07:27:08;5.30;99.90
56162;DHT22;42045;52.986;6.014;2023-01-30T07:29:38;5.30;99.90
56162;DHT22;42045;52.986;6.014;2023-01-30T07:32:05;5.30;99.90
56162;DHT22;42045;52.986;6.014;2023-01-30T07:34:31;5.40;99.90
56162;DHT22;42045;52.986;6.014;2023-01-30T07:36:56;5.40;99.90
56162;DHT22;42045;52.986;6.014;2023-01-30T07:39:22;5.40;99.90
56162;DHT22;42045;52.986;6.014;2023-01-30T07:41:48;5.40;99.90
56162;DHT22;42045;52.986;6.014;2023-01-30T07:44:13;5.40;99.90
56162;DHT22;42045;52.986;6.014;2023-01-30T07:46:39;5.40;99.90
56162;DHT22;42045;52.986;6.014;2023-01-30T07:49:06;5.40;99.90
56162;DHT22;42045;52.986;6.014;2023-01-30T07:51:33;5.40;99.90
56162;DHT22;42045;52.986;6.014;2023-01-30T07:53:59;5.40;99.90
56162;DHT22;42045;52.986;6.014;2023-01-30T07:56:28;5.40;99.90
56162;DHT22;42045;52.986;6.014;2023-01-30T07:58:54;5.40;99.90
56162;DHT22;42045;52.986;6.014;2023-01-30T08:01:20;5.40;99.90
56162;DHT22;42045;52.986;6.014;2023-01-30T08:03:46;5.40;99.90
56162;DHT22;42045;52.986;6.014;2023-01-30T08:06:14;5.50;99.90
56162;DHT22;42045;52.986;6.014;2023-01-30T08:08:40;5.50;99.90
56162;DHT22;42045;52.986;6.014;2023-01-30T08:11:05;5.50;99.90
56162;DHT22;42045;52.986;6.014;2023-01-30T08:13:31;5.60;99.90
56162;DHT22;42045;52.986;6.014;2023-01-30T08:16:01;5.60;99.90
56162;DHT22;42045;52.986;6.014;2023-01-30T08:18:33;5.70;99.90
56162;DHT22;42045;52.986;6.014;2023-01-30T08:20:59;5.70;99.90
56162;DHT22;42045;52.986;6.014;2023-01-30T08:23:26;5.70;99.90
56162;DHT22;42045;52.986;6.014;2023-01-30T08:25:56;5.70;99.90
56162;DHT22;42045;52.986;6.014;2023-01-30T08:28:22;5.70;99.90
56162;DHT22;42045;52.986;6.014;2023-01-30T08:30:48;5.70;99.90
56162;DHT22;42045;52.986;6.014;2023-01-30T08:33:14;5.80;99.90
56162;DHT22;42045;52.986;6.014;2023-01-30T08:35:40;5.80;99.90
56162;DHT22;42045;52.986;6.014;2023-01-30T08:38:06;5.80;99.90
56162;DHT22;42045;52.986;6.014;2023-01-30T08:40:35;5.90;99.90
56162;DHT22;42045;52.986;6.014;2023-01-30T08:43:01;5.90;99.90
56162;DHT22;42045;52.986;6.014;2023-01-30T08:45:27;5.90;99.90
56162;DHT22;42045;52.986;6.014;2023-01-30T08:47:57;5.80;99.90
56162;DHT22;42045;52.986;6.014;2023-01-30T08:50:23;5.80;99.90
56162;DHT22;42045;52.986;6.014;2023-01-30T08:52:48;5.80;99.90
56162;DHT22;42045;52.986;6.014;2023-01-30T08:55:14;6.00;99.90
56162;DHT22;42045;52.986;6.014;2023-01-30T08:57:40;6.10;99.90
56162;DHT22;42045;52.986;6.014;2023-01-30T09:00:06;6.20;99.90
56162;DHT22;42045;52.986;6.014;2023-01-30T09:02:33;6.20;99.90
56162;DHT22;42045;52.986;6.014;2023-01-30T09:04:59;6.20;99.90
56162;DHT22;42045;52.986;6.014;2023-01-30T09:07:24;6.30;99.90
56162;DHT22;42045;52.986;6.014;2023-01-30T09:09:52;6.30;99.90
56162;DHT22;42045;52.986;6.014;2023-01-30T09:12:18;6.30;99.90
56162;DHT22;42045;52.986;6.014;2023-01-30T09:14:44;6.30;99.90
56162;DHT22;42045;52.986;6.014;2023-01-30T09:17:10;6.20;99.90
56162;DHT22;42045;52.986;6.014;2023-01-30T09:19:35;6.20;99.90
56162;DHT22;42045;52.986;6.014;2023-01-30T09:22:02;6.20;99.90
56162;DHT22;42045;52.986;6.014;2023-01-30T09:24:28;6.20;99.90
56162;DHT22;42045;52.986;6.014;2023-01-30T09:26:54;6.30;99.90
56162;DHT22;42045;52.986;6.014;2023-01-30T09:29:22;6.40;99.90
56162;DHT22;42045;52.986;6.014;2023-01-30T09:31:48;6.60;99.90
56162;DHT22;42045;52.986;6.014;2023-01-30T09:34:14;6.80;99.90
56162;DHT22;42045;52.986;6.014;2023-01-30T09:36:40;6.90;99.90
56162;DHT22;42045;52.986;6.014;2023-01-30T09:39:06;6.90;99.90
56162;DHT22;42045;52.986;6.014;2023-01-30T09:54:47;6.90;99.90
56162;DHT22;42045;52.986;6.014;2023-01-30T09:57:20;6.80;99.90
56162;DHT22;42045;52.986;6.014;2023-01-30T09:59:54;6.80;99.90
56162;DHT22;42045;52.986;6.014;2023-01-30T10:05:14;6.80;99.90
56162;DHT22;42045;52.986;6.014;2023-01-30T10:10:37;6.90;99.90
56162;DHT22;42045;52.986;6.014;2023-01-30T10:13:22;6.90;99.90
56162;DHT22;42045;52.986;6.014;2023-01-30T10:21:44;7.10;99.90
56162;DHT22;42045;52.986;6.014;2023-01-30T10:26:45;7.20;99.90
56162;DHT22;42045;52.986;6.014;2023-01-30T10:29:19;7.20;99.90
56162;DHT22;42045;52.986;6.014;2023-01-30T10:31:58;7.20;99.90
56162;DHT22;42045;52.986;6.014;2023-01-30T10:34:31;7.20;99.90
56162;DHT22;42045;52.986;6.014;2023-01-30T10:40:03;7.30;99.90
56162;DHT22;42045;52.986;6.014;2023-01-30T10:42:38;7.30;99.90
56162;DHT22;42045;52.986;6.014;2023-01-30T10:45:17;7.40;99.90
56162;DHT22;42045;52.986;6.014;2023-01-30T10:48:13;7.40;99.90
56162;DHT22;42045;52.986;6.014;2023-01-30T10:50:52;7.50;99.90
56162;DHT22;42045;52.986;6.014;2023-01-30T10:53:36;7.60;99.90
56162;DHT22;42045;52.986;6.014;2023-01-30T10:56:18;7.70;99.90
56162;DHT22;42045;52.986;6.014;2023-01-30T10:58:57;7.70;99.90
56162;DHT22;42045;52.986;6.014;2023-01-30T11:01:31;7.70;99.90
56162;DHT22;42045;52.986;6.014;2023-01-30T11:04:03;7.70;99.90
56162;DHT22;42045;52.986;6.014;2023-01-30T11:06:32;7.50;99.90
56162;DHT22;42045;52.986;6.014;2023-01-30T11:08:59;7.40;99.90
56162;DHT22;42045;52.986;6.014;2023-01-30T11:11:48;7.30;99.90
56162;DHT22;42045;52.986;6.014;2023-01-30T11:14:15;7.30;99.90
56162;DHT22;42045;52.986;6.014;2023-01-30T11:16:47;7.10;99.90
56162;DHT22;42045;52.986;6.014;2023-01-30T11:19:16;7.00;99.90
56162;DHT22;42045;52.986;6.014;2023-01-30T11:21:49;6.90;99.90
56162;DHT22;42045;52.986;6.014;2023-01-30T11:24:19;6.70;99.90
56162;DHT22;42045;52.986;6.014;2023-01-30T11:26:46;6.60;99.90
56162;DHT22;42045;52.986;6.014;2023-01-30T11:29:25;6.70;99.90
56162;DHT22;42045;52.986;6.014;2023-01-30T11:31:52;6.90;99.90
56162;DHT22;42045;52.986;6.014;2023-01-30T11:34:20;7.00;99.90
56162;DHT22;42045;52.986;6.014;2023-01-30T11:36:47;7.20;99.90
56162;DHT22;42045;52.986;6.014;2023-01-30T11:42:01;7.20;99.90
56162;DHT22;42045;52.986;6.014;2023-01-30T11:44:34;7.10;99.90
56162;DHT22;42045;52.986;6.014;2023-01-30T11:47:05;7.10;99.90
56162;DHT22;42045;52.986;6.014;2023-01-30T11:49:36;6.70;99.90
56162;DHT22;42045;52.986;6.014;2023-01-30T11:52:04;6.30;99.90
56162;DHT22;42045;52.986;6.014;2023-01-30T11:54:38;6.10;99.90
56162;DHT22;42045;52.986;6.014;2023-01-30T11:57:10;6.00;99.90
56162;DHT22;42045;52.986;6.014;2023-01-30T12:02:23;6.10;99.90
56162;DHT22;42045;52.986;6.014;2023-01-30T12:04:53;6.20;99.90
56162;DHT22;42045;52.986;6.014;2023-01-30T12:07:26;6.30;99.90
56162;DHT22;42045;52.986;6.014;2023-01-30T12:09:53;6.40;99.90
56162;DHT22;42045;52.986;6.014;2023-01-30T12:15:33;6.30;99.90
56162;DHT22;42045;52.986;6.014;2023-01-30T12:18:04;6.30;99.90
56162;DHT22;42045;52.986;6.014;2023-01-30T12:23:16;6.30;99.90
56162;DHT22;42045;52.986;6.014;2023-01-30T12:26:10;6.30;99.90
56162;DHT22;42045;52.986;6.014;2023-01-30T12:31:47;6.40;99.90
56162;DHT22;42045;52.986;6.014;2023-01-30T12:34:14;6.40;99.90
56162;DHT22;42045;52.986;6.014;2023-01-30T12:40:01;6.60;99.90
56162;DHT22;42045;52.986;6.014;2023-01-30T12:48:03;6.70;99.90
56162;DHT22;42045;52.986;6.014;2023-01-30T13:12:01;7.20;99.90
56162;DHT22;42045;52.986;6.014;2023-01-30T13:20:15;7.40;99.90
56162;DHT22;42045;52.986;6.014;2023-01-30T13:23:09;7.40;99.90
56162;DHT22;42045;52.986;6.014;2023-01-30T13:25:57;7.40;99.90
56162;DHT22;42045;52.986;6.014;2023-01-30T13:28:30;7.40;99.90
56162;DHT22;42045;52.986;6.014;2023-01-30T13:30:57;7.40;99.90
56162;DHT22;42045;52.986;6.014;2023-01-30T13:33:29;7.40;99.90
56162;DHT22;42045;52.986;6.014;2023-01-30T13:36:21;7.30;99.90
56162;DHT22;42045;52.986;6.014;2023-01-30T13:38:59;7.40;99.90
56162;DHT22;42045;52.986;6.014;2023-01-30T13:41:29;7.40;99.90
56162;DHT22;42045;52.986;6.014;2023-01-30T13:43:56;7.50;99.90
56162;DHT22;42045;52.986;6.014;2023-01-30T13:46:25;7.50;99.90
56162;DHT22;42045;52.986;6.014;2023-01-30T13:52:09;7.50;99.90
56162;DHT22;42045;52.986;6.014;2023-01-30T13:54:59;7.50;99.90
56162;DHT22;42045;52.986;6.014;2023-01-30T13:57:44;7.50;99.90
56162;DHT22;42045;52.986;6.014;2023-01-30T14:08:32;7.50;99.90
56162;DHT22;42045;52.986;6.014;2023-01-30T14:11:00;7.50;99.90
56162;DHT22;42045;52.986;6.014;2023-01-30T14:13:26;7.60;99.90
56162;DHT22;42045;52.986;6.014;2023-01-30T14:15:56;7.60;99.90
56162;DHT22;42045;52.986;6.014;2023-01-30T14:18:48;7.60;99.90
56162;DHT22;42045;52.986;6.014;2023-01-30T14:21:21;7.50;99.90
56162;DHT22;42045;52.986;6.014;2023-01-30T14:45:58;6.90;99.90
56162;DHT22;42045;52.986;6.014;2023-01-30T14:59:37;6.70;99.90
56162;DHT22;42045;52.986;6.014;2023-01-30T15:07:34;6.60;99.90
56162;DHT22;42045;52.986;6.014;2023-01-30T15:10:05;6.60;99.90
56162;DHT22;42045;52.986;6.014;2023-01-30T15:18:00;6.50;99.90
56162;DHT22;42045;52.986;6.014;2023-01-30T15:31:07;6.30;99.90
56162;DHT22;42045;52.986;6.014;2023-01-30T15:33:42;6.30;99.90
56162;DHT22;42045;52.986;6.014;2023-01-30T15:36:30;6.30;99.90
56162;DHT22;42045;52.986;6.014;2023-01-30T15:39:19;6.20;99.90
56162;DHT22;42045;52.986;6.014;2023-01-30T15:41:45;6.10;99.90
56162;DHT22;42045;52.986;6.014;2023-01-30T15:50:08;6.10;99.90
56162;DHT22;42045;52.986;6.014;2023-01-30T15:52:42;6.00;99.90
56162;DHT22;42045;52.986;6.014;2023-01-30T15:55:16;6.00;99.90
56162;DHT22;42045;52.986;6.014;2023-01-30T15:58:09;6.00;99.90
56162;DHT22;42045;52.986;6.014;2023-01-30T16:00:35;5.90;99.90
56162;DHT22;42045;52.986;6.014;2023-01-30T16:03:04;6.00;99.90
56162;DHT22;42045;52.986;6.014;2023-01-30T16:05:30;5.90;99.90
56162;DHT22;42045;52.986;6.014;2023-01-30T16:07:57;5.90;99.90
56162;DHT22;42045;52.986;6.014;2023-01-30T16:10:29;5.80;99.90
56162;DHT22;42045;52.986;6.014;2023-01-30T16:12:57;5.70;99.90
56162;DHT22;42045;52.986;6.014;2023-01-30T16:15:33;5.70;99.90
56162;DHT22;42045;52.986;6.014;2023-01-30T16:20:29;5.50;99.90
56162;DHT22;42045;52.986;6.014;2023-01-30T16:22:56;5.40;99.90
56162;DHT22;42045;52.986;6.014;2023-01-30T16:25:24;5.40;99.90
56162;DHT22;42045;52.986;6.014;2023-01-30T16:27:51;5.30;99.90
56162;DHT22;42045;52.986;6.014;2023-01-30T16:30:26;5.30;99.90
56162;DHT22;42045;52.986;6.014;2023-01-30T16:32:53;5.20;99.90
56162;DHT22;42045;52.986;6.014;2023-01-30T16:37:49;5.20;99.90
56162;DHT22;42045;52.986;6.014;2023-01-30T16:40:25;5.20;99.90
56162;DHT22;42045;52.986;6.014;2023-01-30T16:43:02;5.20;99.90
56162;DHT22;42045;52.986;6.014;2023-01-30T16:50:45;5.10;99.90
56162;DHT22;42045;52.986;6.014;2023-01-30T16:53:18;5.00;99.90
56162;DHT22;42045;52.986;6.014;2023-01-30T16:58:26;4.90;99.90
56162;DHT22;42045;52.986;6.014;2023-01-30T17:01:01;4.90;99.90
56162;DHT22;42045;52.986;6.014;2023-01-30T17:03:39;4.80;99.90
56162;DHT22;42045;52.986;6.014;2023-01-30T17:06:08;4.80;99.90
56162;DHT22;42045;52.986;6.014;2023-01-30T17:08:54;4.70;99.90
56162;DHT22;42045;52.986;6.014;2023-01-30T17:16:44;4.70;99.90
56162;DHT22;42045;52.986;6.014;2023-01-30T17:19:10;4.70;99.90
56162;DHT22;42045;52.986;6.014;2023-01-30T17:21:57;4.70;99.90
56162;DHT22;42045;52.986;6.014;2023-01-30T17:24:24;4.70;99.90
56162;DHT22;42045;52.986;6.014;2023-01-30T17:26:58;4.60;99.90
56162;DHT22;42045;52.986;6.014;2023-01-30T17:29:30;4.50;99.90
56162;DHT22;42045;52.986;6.014;2023-01-30T17:31:56;4.60;99.90
56162;DHT22;42045;52.986;6.014;2023-01-30T17:34:22;4.50;99.90
56162;DHT22;42045;52.986;6.014;2023-01-30T17:36:52;4.50;99.90
56162;DHT22;42045;52.986;6.014;2023-01-30T17:39:20;4.40;99.90
56162;DHT22;42045;52.986;6.014;2023-01-30T17:41:47;4.50;99.90
56162;DHT22;42045;52.986;6.014;2023-01-30T17:44:13;4.60;99.90
56162;DHT22;42045;52.986;6.014;2023-01-30T17:46:41;4.60;99.90
56162;DHT22;42045;52.986;6.014;2023-01-30T17:49:21;4.60;99.90
56162;DHT22;42045;52.986;6.014;2023-01-30T17:51:48;4.60;99.90
56162;DHT22;42045;52.986;6.014;2023-01-30T17:54:14;4.50;99.90
56162;DHT22;42045;52.986;6.014;2023-01-30T17:56:47;4.50;99.90
56162;DHT22;42045;52.986;6.014;2023-01-30T17:59:19;4.50;99.90
56162;DHT22;42045;52.986;6.014;2023-01-30T18:01:47;4.40;99.90
56162;DHT22;42045;52.986;6.014;2023-01-30T18:04:13;4.50;99.90
56162;DHT22;42045;52.986;6.014;2023-01-30T18:06:41;4.50;99.90
56162;DHT22;42045;52.986;6.014;2023-01-30T18:09:18;4.50;99.90
56162;DHT22;42045;52.986;6.014;2023-01-30T18:11:45;4.40;99.90
56162;DHT22;42045;52.986;6.014;2023-01-30T18:14:10;4.40;99.90
56162;DHT22;42045;52.986;6.014;2023-01-30T18:16:36;4.40;99.90
56162;DHT22;42045;52.986;6.014;2023-01-30T18:19:06;4.40;99.90
56162;DHT22;42045;52.986;6.014;2023-01-30T18:21:34;4.40;99.90
56162;DHT22;42045;52.986;6.014;2023-01-30T18:24:00;4.40;99.90
56162;DHT22;42045;52.986;6.014;2023-01-30T18:26:27;4.40;99.90
56162;DHT22;42045;52.986;6.014;2023-01-30T18:28:53;4.40;99.90
56162;DHT22;42045;52.986;6.014;2023-01-30T18:31:18;4.30;99.90
56162;DHT22;42045;52.986;6.014;2023-01-30T18:33:46;4.30;99.90
56162;DHT22;42045;52.986;6.014;2023-01-30T18:36:16;4.30;99.90
56162;DHT22;42045;52.986;6.014;2023-01-30T18:38:42;4.30;99.90
56162;DHT22;42045;52.986;6.014;2023-01-30T18:41:13;4.30;99.90
56162;DHT22;42045;52.986;6.014;2023-01-30T18:43:39;4.30;99.90
56162;DHT22;42045;52.986;6.014;2023-01-30T18:46:11;4.20;99.90
56162;DHT22;42045;52.986;6.014;2023-01-30T18:48:37;4.20;99.90
56162;DHT22;42045;52.986;6.014;2023-01-30T18:51:11;4.20;99.90
56162;DHT22;42045;52.986;6.014;2023-01-30T18:53:38;4.20;99.90
56162;DHT22;42045;52.986;6.014;2023-01-30T18:56:10;4.20;99.90
56162;DHT22;42045;52.986;6.014;2023-01-30T18:58:36;4.30;99.90
56162;DHT22;42045;52.986;6.014;2023-01-30T19:01:10;4.30;99.90
56162;DHT22;42045;52.986;6.014;2023-01-30T19:03:36;4.40;99.90
56162;DHT22;42045;52.986;6.014;2023-01-30T19:06:03;4.50;99.90
56162;DHT22;42045;52.986;6.014;2023-01-30T19:08:29;4.50;99.90
56162;DHT22;42045;52.986;6.014;2023-01-30T19:11:01;4.60;99.90
56162;DHT22;42045;52.986;6.014;2023-01-30T19:13:47;4.50;99.90
56162;DHT22;42045;52.986;6.014;2023-01-30T19:16:13;4.50;99.90
56162;DHT22;42045;52.986;6.014;2023-01-30T19:18:38;4.60;99.90
56162;DHT22;42045;52.986;6.014;2023-01-30T19:21:04;4.50;99.90
56162;DHT22;42045;52.986;6.014;2023-01-30T19:23:30;4.50;99.90